Terminal Aerodrome Forecast
Issued by NWS

Home | Current Version | Previous Version | Text Only | Print | Product List | Glossary On
Versions: 1 2 3 4 5 6 7 8 9 10 11 12 13 14 15 16 17 18 19 20
000
FTUS44 KLZK 221132
TAFHOT
TAF
KHOT 221132Z 2212/2312 22005KT P6SM SCT080
     FM221500 27010KT P6SM SKC
     FM221800 26015G25KT P6SM SCT250
     FM230000 26005KT P6SM SKC=

USA.gov is the U.S. government's official web portal to all federal, state and local government web resources and services.